createdAt,value
2019-04-05T00:01:10.732Z,0.77
2019-04-05T00:03:40.774Z,1.00
2019-04-05T00:06:11.854Z,0.70
2019-04-05T00:08:42.180Z,0.80
2019-04-05T00:11:12.419Z,2.63
2019-04-05T00:13:44.113Z,1.27
2019-04-05T00:16:12.828Z,0.80
2019-04-05T00:21:34.025Z,1.10
2019-04-05T00:24:02.452Z,0.83
2019-04-05T00:26:31.576Z,0.60
2019-04-05T00:29:02.702Z,1.17
2019-04-05T00:31:32.495Z,0.80
2019-04-05T00:34:00.934Z,0.70
2019-04-05T00:36:29.632Z,1.20
2019-04-05T00:39:03.859Z,0.97
2019-04-05T00:41:36.605Z,0.70
2019-04-05T00:44:05.034Z,0.97
2019-04-05T00:46:34.874Z,0.87
2019-04-05T00:49:05.837Z,0.90
2019-04-05T00:51:38.529Z,0.80
2019-04-05T00:54:07.933Z,0.80
2019-04-05T00:56:36.343Z,0.60
2019-04-05T00:59:12.634Z,1.17
2019-04-05T01:01:44.298Z,0.80
2019-04-05T01:04:12.741Z,0.90
2019-04-05T01:06:41.653Z,0.70
2019-04-05T01:09:12.406Z,1.33
2019-04-05T01:11:42.508Z,0.83
2019-04-05T01:14:14.118Z,0.73
2019-04-05T01:16:46.996Z,1.00
2019-04-05T01:19:23.566Z,1.03
2019-04-05T01:21:58.018Z,0.97
2019-04-05T01:24:33.249Z,0.90
2019-04-05T01:27:01.389Z,0.77
2019-04-05T01:29:33.749Z,0.80
2019-04-05T01:32:05.031Z,0.80
2019-04-05T01:34:33.438Z,1.00
2019-04-05T01:37:04.013Z,0.70
2019-04-05T01:39:37.173Z,0.70
2019-04-05T01:42:11.710Z,0.90
2019-04-05T01:44:47.147Z,0.93
2019-04-05T01:47:18.514Z,0.80
2019-04-05T01:49:46.962Z,0.80
2019-04-05T01:52:15.374Z,0.63
2019-04-05T01:54:45.964Z,0.90
2019-04-05T01:57:14.372Z,0.70
2019-04-05T01:59:44.439Z,0.70
2019-04-05T02:02:12.862Z,1.70
2019-04-05T02:04:43.788Z,0.90
2019-04-05T02:07:13.554Z,0.73
2019-04-05T02:09:44.005Z,0.87
2019-04-05T02:12:13.625Z,0.97
2019-04-05T02:14:45.412Z,0.73
2019-04-05T02:17:15.525Z,0.97
2019-04-05T02:19:48.913Z,0.70
2019-04-05T02:22:20.382Z,0.90
2019-04-05T02:24:49.364Z,0.70
2019-04-05T02:27:18.560Z,0.70
2019-04-05T02:29:47.964Z,0.63
2019-04-05T02:32:18.306Z,0.80
2019-04-05T02:34:46.719Z,0.70
2019-04-05T02:37:15.164Z,0.70
2019-04-05T02:39:45.575Z,0.60
2019-04-05T02:42:19.753Z,0.80
2019-04-05T02:44:50.825Z,0.60
2019-04-05T02:47:19.921Z,0.80
2019-04-05T02:49:54.340Z,1.30
2019-04-05T02:52:23.891Z,0.67
2019-04-05T02:54:54.269Z,1.87
2019-04-05T02:57:23.935Z,0.80
2019-04-05T02:59:55.562Z,0.80
2019-04-05T03:02:26.684Z,0.77
2019-04-05T03:04:57.780Z,0.77
2019-04-05T03:07:28.271Z,0.60
2019-04-05T03:10:00.555Z,0.63
2019-04-05T03:12:29.624Z,0.73
2019-04-05T03:14:59.283Z,0.70
2019-04-05T03:17:33.113Z,0.60
2019-04-05T03:20:09.218Z,0.63
2019-04-05T03:22:37.653Z,0.60
2019-04-05T03:25:07.328Z,1.97
2019-04-05T03:27:38.283Z,0.80
2019-04-05T03:30:08.455Z,0.70
2019-04-05T03:32:36.892Z,0.70
2019-04-05T03:35:09.891Z,1.93
2019-04-05T03:37:40.426Z,0.80
2019-04-05T03:40:09.196Z,0.73
2019-04-05T03:42:39.629Z,1.37
2019-04-05T03:45:09.792Z,0.80
2019-04-05T03:47:38.519Z,1.97
2019-04-05T03:50:07.284Z,1.90
2019-04-05T03:52:37.063Z,0.67
2019-04-05T03:55:05.777Z,1.17
2019-04-05T03:57:36.623Z,0.70
2019-04-05T04:00:10.244Z,1.40
2019-04-05T04:02:39.465Z,2.37
2019-04-05T04:05:10.873Z,0.77
2019-04-05T04:07:39.542Z,1.90
2019-04-05T04:10:13.283Z,0.97
2019-04-05T04:12:41.691Z,1.47
2019-04-05T04:15:17.917Z,2.50
2019-04-05T04:17:46.332Z,1.23
2019-04-05T04:20:29.030Z,1.10
2019-04-05T04:22:57.441Z,0.77
2019-04-05T04:25:29.182Z,0.90
2019-04-05T04:27:59.218Z,1.07
2019-04-05T04:30:28.880Z,0.90
2019-04-05T04:33:01.122Z,1.20
2019-04-05T04:35:33.441Z,0.70
2019-04-05T04:38:03.430Z,0.97
2019-04-05T04:40:34.543Z,0.60
2019-04-05T04:43:05.091Z,1.90
2019-04-05T04:45:36.362Z,1.17
2019-04-05T04:48:04.799Z,0.83
2019-04-05T04:50:33.467Z,1.17
2019-04-05T04:53:01.897Z,0.80
2019-04-05T04:55:31.733Z,2.17
2019-04-05T04:58:03.060Z,1.90
2019-04-05T05:00:31.533Z,2.30
2019-04-05T05:03:00.249Z,0.77
2019-04-05T05:05:28.654Z,1.80
2019-04-05T05:07:57.281Z,0.87
2019-04-05T05:10:29.202Z,0.83
2019-04-05T05:12:59.399Z,1.27
2019-04-05T05:15:31.189Z,0.70
2019-04-05T05:18:01.260Z,0.80
2019-04-05T05:20:31.321Z,0.93
2019-04-05T05:22:59.749Z,1.00
2019-04-05T05:25:29.761Z,0.80
2019-04-05T05:27:58.529Z,2.30
2019-04-05T05:30:31.256Z,0.93
2019-04-05T05:32:59.673Z,0.70
2019-04-05T05:35:28.240Z,0.90
2019-04-05T05:37:56.645Z,0.70
2019-04-05T05:40:34.930Z,0.80
2019-04-05T05:42:55.137Z,0.80
2019-04-05T05:45:23.544Z,0.83
2019-04-05T05:47:54.680Z,0.80
2019-04-05T05:50:26.611Z,0.80
2019-04-05T05:52:58.143Z,1.23
2019-04-05T05:55:30.024Z,0.80
2019-04-05T05:57:58.798Z,0.67
2019-04-05T06:00:30.155Z,0.63
2019-04-05T06:02:59.432Z,0.73
2019-04-05T06:05:29.089Z,1.77
2019-04-05T06:07:58.760Z,0.70
2019-04-05T06:10:27.854Z,0.90
2019-04-05T06:12:58.634Z,0.80
2019-04-05T06:15:27.658Z,0.87
2019-04-05T06:18:04.738Z,0.83
2019-04-05T06:20:27.692Z,5.57
2019-04-05T06:22:56.793Z,0.70
2019-04-05T06:25:25.226Z,0.90
2019-04-05T06:27:53.891Z,0.80
2019-04-05T06:30:22.326Z,1.13
2019-04-05T06:32:51.553Z,0.70
2019-04-05T06:35:21.260Z,0.77
2019-04-05T06:37:49.696Z,1.00
2019-04-05T06:40:19.317Z,0.73
2019-04-05T06:42:47.760Z,0.70
2019-04-05T06:45:17.369Z,0.60
2019-04-05T06:47:45.800Z,3.00
2019-04-05T06:50:15.595Z,1.60
2019-04-05T06:52:44.035Z,1.03
2019-04-05T06:55:14.034Z,0.70
2019-04-05T06:57:42.475Z,0.40
2019-04-05T07:00:14.840Z,0.80
2019-04-05T07:02:43.273Z,0.60
2019-04-05T07:05:11.751Z,0.80
2019-04-05T07:07:40.205Z,0.70
2019-04-05T07:10:10.537Z,0.70
2019-04-05T07:12:38.953Z,0.77
2019-04-05T07:15:07.385Z,0.80
2019-04-05T07:17:37.859Z,0.80
2019-04-05T07:20:09.930Z,0.87
2019-04-05T07:22:39.610Z,0.77
2019-04-05T07:25:09.276Z,1.17
2019-04-05T07:27:39.787Z,0.70
2019-04-05T07:30:12.086Z,0.80
2019-04-05T07:32:42.161Z,0.60
2019-04-05T07:35:11.848Z,0.80
2019-04-05T07:37:41.545Z,2.43
2019-04-05T07:40:12.390Z,0.90
2019-04-05T07:42:40.826Z,0.60
2019-04-05T07:45:09.232Z,0.70
2019-04-05T07:47:39.587Z,0.67
2019-04-05T07:50:08.153Z,0.70
2019-04-05T07:52:37.448Z,0.90
2019-04-05T07:55:12.881Z,0.83
2019-04-05T07:57:44.138Z,0.87
2019-04-05T08:00:22.989Z,1.10
2019-04-05T08:02:52.193Z,0.73
2019-04-05T08:05:29.758Z,0.67
2019-04-05T08:07:59.600Z,1.27
2019-04-05T08:10:28.056Z,1.03
2019-04-05T08:12:56.914Z,0.80
2019-04-05T08:15:26.837Z,1.83
2019-04-05T08:17:55.932Z,2.50
2019-04-05T08:20:28.413Z,0.70
2019-04-05T08:22:59.384Z,0.90
2019-04-05T08:25:28.732Z,0.80
2019-04-05T08:27:57.172Z,0.60
2019-04-05T08:30:25.856Z,0.60
2019-04-05T08:32:54.284Z,1.00
2019-04-05T08:35:23.045Z,0.80
2019-04-05T08:37:53.356Z,0.70
2019-04-05T08:40:23.597Z,0.80
2019-04-05T08:42:54.669Z,1.53
2019-04-05T08:45:24.017Z,0.63
2019-04-05T08:47:52.464Z,2.00
2019-04-05T08:50:20.881Z,0.70
2019-04-05T08:52:49.301Z,0.77
2019-04-05T08:55:19.024Z,0.50
2019-04-05T08:57:48.170Z,0.90
2019-04-05T09:00:18.500Z,0.80
2019-04-05T09:02:48.660Z,0.90
2019-04-05T09:05:17.501Z,1.30
2019-04-05T09:07:46.473Z,3.90
2019-04-05T09:10:14.944Z,1.30
2019-04-05T09:12:45.025Z,0.93
2019-04-05T09:15:13.437Z,7.10
2019-04-05T09:17:41.871Z,2.50
2019-04-05T09:20:11.657Z,1.40
2019-04-05T09:22:41.715Z,6.67
2019-04-05T09:25:10.120Z,1.00
2019-04-05T09:27:38.561Z,9.67
2019-04-05T09:30:08.021Z,1.33
2019-04-05T09:32:38.018Z,1.10
2019-04-05T09:35:06.507Z,1.70
2019-04-05T09:37:36.666Z,1.00
2019-04-05T09:40:07.558Z,2.30
2019-04-05T09:42:35.978Z,1.13
2019-04-05T09:45:06.221Z,0.80
2019-04-05T09:47:34.632Z,1.00
2019-04-05T09:50:04.142Z,1.23
2019-04-05T09:52:35.019Z,1.37
2019-04-05T09:55:03.598Z,1.83
2019-04-05T09:57:33.716Z,0.90
2019-04-05T10:00:02.175Z,1.30
2019-04-05T10:02:31.923Z,1.20
2019-04-05T10:05:00.401Z,1.30
2019-04-05T10:07:29.408Z,1.23
2019-04-05T10:09:57.804Z,1.00
2019-04-05T10:12:26.258Z,1.10
2019-04-05T10:14:54.665Z,1.27
2019-04-05T10:17:23.391Z,1.60
2019-04-05T10:19:52.086Z,1.27
2019-04-05T10:22:21.325Z,1.30
2019-04-05T10:24:49.726Z,1.00
2019-04-05T10:27:18.164Z,1.27
2019-04-05T10:29:49.384Z,3.50
2019-04-05T10:32:16.668Z,1.57
2019-04-05T10:34:45.082Z,1.40
2019-04-05T10:37:13.540Z,1.33
2019-04-05T10:39:43.040Z,0.97
2019-04-05T10:42:31.488Z,1.40
2019-04-05T10:45:00.285Z,1.30
2019-04-05T10:47:29.733Z,1.37
2019-04-05T10:50:03.489Z,1.70
2019-04-05T10:52:29.259Z,1.60
2019-04-05T10:54:58.063Z,1.50
2019-04-05T10:57:26.517Z,1.40
2019-04-05T10:59:55.235Z,1.50
2019-04-05T11:02:24.181Z,1.43
2019-04-05T11:04:52.607Z,7.10
2019-04-05T11:07:21.033Z,1.43
2019-04-05T11:09:49.469Z,1.40
2019-04-05T11:12:17.878Z,1.40
2019-04-05T11:14:46.309Z,1.27
2019-04-05T11:17:15.275Z,1.43
2019-04-05T11:19:43.705Z,1.43
2019-04-05T11:22:12.676Z,3.17
2019-04-05T11:24:43.230Z,1.50
2019-04-05T11:27:11.639Z,1.40
2019-04-05T11:29:40.164Z,1.37
2019-04-05T11:32:09.812Z,1.47
2019-04-05T11:34:38.477Z,1.33
2019-04-05T11:37:09.630Z,1.70
2019-04-05T11:39:38.625Z,1.73
2019-04-05T11:42:07.048Z,1.33
2019-04-05T11:44:35.449Z,1.50
2019-04-05T11:47:04.453Z,1.40
2019-04-05T11:49:34.212Z,1.40
2019-04-05T11:52:02.640Z,3.20
2019-04-05T11:54:31.049Z,1.33
2019-04-05T11:56:59.457Z,1.47
2019-04-05T11:59:27.889Z,1.80
2019-04-05T12:01:57.949Z,1.27
2019-04-05T12:04:26.382Z,1.50
2019-04-05T12:06:55.482Z,1.70
2019-04-05T12:09:23.909Z,1.60
2019-04-05T12:11:52.326Z,1.63
2019-04-05T12:14:30.163Z,1.70
2019-04-05T12:16:54.666Z,1.30
2019-04-05T12:19:26.410Z,2.33
2019-04-05T12:21:56.437Z,1.90
2019-04-05T12:24:25.553Z,5.17
2019-04-05T12:26:53.993Z,1.90
2019-04-05T12:29:22.674Z,2.00
2019-04-05T12:31:53.439Z,2.70
2019-04-05T12:34:22.524Z,2.00
2019-04-05T12:36:52.606Z,1.93
2019-04-05T12:39:26.521Z,2.40
2019-04-05T12:41:54.957Z,2.53
2019-04-05T12:44:23.371Z,2.10
2019-04-05T12:46:51.803Z,2.30
2019-04-05T12:49:22.866Z,2.20
2019-04-05T12:51:53.957Z,2.10
2019-04-05T12:54:22.405Z,2.40
2019-04-05T12:56:53.961Z,2.33
2019-04-05T12:59:20.890Z,2.60
2019-04-05T13:01:49.869Z,2.60
2019-04-05T13:04:21.255Z,2.63
2019-04-05T13:06:50.605Z,2.63
2019-04-05T13:09:21.383Z,5.87
2019-04-05T13:11:49.961Z,2.37
2019-04-05T13:14:18.964Z,2.90
2019-04-05T13:16:49.507Z,3.83
2019-04-05T13:19:18.016Z,2.60
2019-04-05T13:21:46.454Z,2.70
2019-04-05T13:24:15.128Z,2.93
2019-04-05T13:26:45.208Z,2.93
2019-04-05T13:29:14.881Z,2.77
2019-04-05T13:31:43.305Z,2.80
2019-04-05T13:34:13.777Z,3.23
2019-04-05T13:36:44.172Z,4.33
2019-04-05T13:39:12.589Z,4.17
2019-04-05T13:41:42.941Z,3.37
2019-04-05T13:44:11.353Z,3.67
2019-04-05T13:46:42.558Z,4.60
2019-04-05T13:49:10.573Z,7.17
2019-04-05T13:51:42.100Z,4.17
2019-04-05T13:54:11.404Z,7.20
2019-04-05T13:56:41.520Z,8.60
2019-04-05T13:59:09.969Z,5.43
2019-04-05T14:01:38.377Z,12.90
2019-04-05T14:04:06.807Z,7.33
2019-04-05T14:06:35.217Z,6.83
2019-04-05T14:09:05.521Z,7.83
2019-04-05T14:11:35.709Z,6.03
2019-04-05T14:14:06.064Z,9.23
2019-04-05T14:16:35.302Z,8.93
2019-04-05T14:19:06.345Z,8.60
2019-04-05T14:21:40.185Z,12.87
2019-04-05T14:24:04.850Z,5.63
2019-04-05T14:26:33.278Z,9.50
2019-04-05T14:29:03.591Z,6.33
2019-04-05T14:31:32.213Z,6.43
2019-04-05T14:34:00.833Z,7.50
2019-04-05T14:36:29.270Z,6.47
2019-04-05T14:38:57.682Z,7.67
2019-04-05T14:41:26.125Z,6.83
2019-04-05T14:43:56.094Z,4.97
2019-04-05T14:46:28.097Z,10.53
2019-04-05T14:48:54.868Z,7.33
2019-04-05T14:51:28.398Z,6.27
2019-04-05T14:53:55.065Z,8.83
2019-04-05T14:56:28.840Z,8.87
2019-04-05T14:58:55.330Z,11.57
2019-04-05T15:01:23.766Z,10.00
2019-04-05T15:03:53.159Z,10.00
2019-04-05T15:06:21.569Z,7.17
2019-04-05T15:08:52.098Z,9.37
2019-04-05T15:11:20.308Z,11.03
2019-04-05T15:13:49.700Z,10.77
2019-04-05T15:16:18.057Z,12.20
2019-04-05T15:18:47.751Z,13.20
2019-04-05T15:21:18.233Z,8.20
2019-04-05T15:23:46.669Z,8.53
2019-04-05T15:26:15.103Z,9.50
2019-04-05T15:28:43.515Z,7.40
2019-04-05T15:31:20.714Z,7.80
2019-04-05T16:08:48.711Z,4.67
2019-04-05T16:11:30.069Z,4.63
2019-04-05T16:38:06.720Z,3.97
2019-04-05T16:49:20.083Z,4.20
2019-04-05T16:51:48.524Z,5.07
2019-04-05T16:54:16.960Z,4.30
2019-04-05T16:56:45.359Z,5.30
2019-04-05T16:59:13.793Z,4.20
2019-04-05T17:01:42.237Z,4.60
2019-04-05T17:04:10.668Z,4.23
2019-04-05T17:06:39.087Z,3.80
2019-04-05T17:09:09.108Z,4.60
2019-04-05T17:11:39.135Z,3.83
2019-04-05T17:14:07.574Z,6.30
2019-04-05T17:16:35.982Z,4.90
2019-04-05T17:19:04.420Z,4.77
2019-04-05T17:21:32.842Z,4.93
2019-04-05T17:24:01.302Z,4.33
2019-04-05T17:26:29.714Z,4.40
2019-04-05T17:28:59.135Z,4.20
2019-04-05T17:31:27.566Z,4.23
2019-04-05T17:33:55.995Z,5.43
2019-04-05T17:36:25.541Z,5.00
2019-04-05T17:38:53.958Z,5.00
2019-04-05T17:41:22.413Z,4.17
2019-04-05T17:43:52.445Z,4.20
2019-04-05T17:46:20.894Z,5.03
2019-04-05T17:48:51.795Z,3.60
2019-04-05T17:51:20.397Z,4.53
2019-04-05T17:53:48.809Z,4.33
2019-04-05T17:56:17.909Z,4.63
2019-04-05T17:58:46.337Z,4.00
2019-04-05T18:01:15.127Z,4.03
2019-04-05T18:03:44.530Z,3.90
2019-04-05T18:06:13.064Z,3.90
2019-04-05T18:08:44.429Z,3.83
2019-04-05T18:11:12.868Z,4.03
2019-04-05T18:13:41.357Z,4.70
2019-04-05T18:16:09.791Z,4.03
2019-04-05T18:18:38.235Z,4.60
2019-04-05T18:21:06.652Z,3.90
2019-04-05T18:23:35.104Z,4.47
2019-04-05T18:26:03.516Z,4.63
2019-04-05T18:28:37.242Z,3.93
2019-04-05T18:31:05.645Z,4.43
2019-04-05T18:33:34.097Z,3.80
2019-04-05T18:36:02.500Z,4.00
2019-04-05T18:38:32.566Z,4.63
2019-04-05T18:41:03.935Z,4.30
2019-04-05T18:43:32.363Z,3.80
2019-04-05T18:46:00.787Z,4.43
2019-04-05T18:48:29.211Z,3.63
2019-04-05T18:50:57.624Z,4.47
2019-04-05T18:53:36.990Z,4.77
2019-04-05T18:55:57.042Z,4.67
2019-04-05T18:58:25.445Z,4.60
2019-04-05T19:00:53.888Z,4.33
2019-04-05T19:03:22.579Z,4.87
2019-04-05T19:05:51.031Z,4.50
2019-04-05T19:08:24.305Z,4.43
2019-04-05T19:10:54.065Z,4.30
2019-04-05T19:13:24.108Z,4.17
2019-04-05T19:15:52.657Z,4.47
2019-04-05T19:18:22.011Z,5.10
2019-04-05T19:20:50.430Z,4.50
2019-04-05T19:23:18.842Z,4.63
2019-04-05T19:25:47.291Z,4.70
2019-04-05T19:28:15.709Z,4.70
2019-04-05T19:50:51.096Z,4.47
2019-04-05T19:53:19.668Z,4.77
2019-04-05T19:55:48.091Z,5.40
2019-04-05T19:58:17.352Z,5.00
2019-04-05T20:00:45.773Z,4.40
2019-04-05T20:03:16.040Z,5.30
2019-04-05T20:05:45.027Z,4.77
2019-04-05T20:08:16.110Z,5.17
2019-04-05T20:10:45.796Z,4.63
2019-04-05T20:13:14.260Z,5.10
2019-04-05T20:15:42.679Z,5.30
2019-04-05T20:18:11.088Z,5.60
2019-04-05T20:20:40.813Z,4.67
2019-04-05T20:23:09.219Z,5.10
2019-04-05T20:25:39.481Z,5.60
2019-04-05T20:28:07.901Z,5.33
2019-04-05T20:30:37.015Z,5.73
2019-04-05T20:33:05.421Z,7.83
2019-04-05T20:35:36.263Z,4.87
2019-04-05T20:38:07.915Z,5.00
2019-04-05T20:40:36.822Z,4.80
2019-04-05T20:43:05.241Z,4.83
2019-04-05T20:45:33.687Z,5.40
2019-04-05T20:48:02.152Z,5.23
2019-04-05T20:50:30.516Z,4.90
2019-04-05T20:52:58.965Z,4.90
2019-04-05T20:55:27.366Z,4.87
2019-04-05T20:57:55.818Z,5.30
2019-04-05T21:00:24.244Z,5.23
2019-04-05T21:02:52.680Z,5.30
2019-04-05T21:05:25.659Z,4.73
2019-04-05T21:07:55.420Z,4.27
2019-04-05T21:10:23.891Z,5.00
2019-04-05T21:12:52.275Z,4.97
2019-04-05T21:15:20.682Z,5.13
2019-04-05T21:17:49.105Z,4.30
2019-04-05T21:20:17.522Z,4.50
2019-04-05T21:22:45.930Z,4.90
2019-04-05T21:25:14.676Z,4.27
2019-04-05T21:27:43.058Z,5.40
2019-04-05T21:30:12.673Z,4.43
2019-04-05T21:32:42.509Z,4.23
2019-04-05T21:35:10.943Z,4.63
2019-04-05T21:37:39.745Z,6.37
2019-04-05T21:40:08.175Z,4.93
2019-04-05T21:42:36.592Z,4.67
2019-04-05T21:45:07.025Z,4.63
2019-04-05T21:47:35.511Z,4.80
2019-04-05T21:50:07.581Z,4.40
2019-04-05T21:52:37.245Z,4.97
2019-04-05T21:55:06.917Z,4.80
2019-04-05T21:57:35.329Z,4.83
2019-04-05T22:00:09.759Z,4.77
2019-04-05T22:02:39.376Z,4.27
2019-04-05T22:05:07.738Z,4.17
2019-04-05T22:07:36.171Z,4.37
2019-04-05T22:10:06.135Z,5.10
2019-04-05T22:12:34.569Z,4.33
2019-04-05T22:15:02.993Z,4.40
2019-04-05T22:17:31.697Z,4.57
2019-04-05T22:20:00.109Z,4.47
2019-04-05T22:22:28.549Z,4.30
2019-04-05T22:24:59.415Z,4.27
2019-04-05T22:27:28.121Z,4.27
2019-04-05T22:29:56.792Z,4.43
2019-04-05T22:32:25.220Z,4.20
2019-04-05T22:34:53.641Z,4.87
2019-04-05T22:37:22.044Z,4.57
2019-04-05T22:39:51.759Z,4.30
2019-04-05T22:42:20.762Z,4.00
2019-04-05T22:44:49.205Z,4.47
2019-04-05T22:47:17.602Z,4.40
2019-04-05T22:49:46.860Z,3.93
2019-04-05T22:52:15.276Z,4.00
2019-04-05T22:54:43.733Z,4.43
2019-04-05T22:57:12.149Z,6.40
2019-04-05T22:59:42.210Z,4.43
2019-04-05T23:02:10.616Z,4.13
2019-04-05T23:04:41.502Z,4.60
2019-04-05T23:07:09.938Z,4.50
2019-04-05T23:09:38.350Z,4.67
2019-04-05T23:12:06.810Z,4.13
2019-04-05T23:14:35.227Z,4.37
2019-04-05T23:17:04.699Z,4.10
2019-04-05T23:19:33.120Z,4.63
2019-04-05T23:22:01.575Z,4.47
2019-04-05T23:24:29.980Z,6.07
2019-04-05T23:29:38.928Z,4.50
2019-04-05T23:32:07.373Z,5.10
2019-04-05T23:34:37.101Z,4.30
2019-04-05T23:37:05.625Z,5.40
2019-04-05T23:39:34.305Z,4.20
2019-04-05T23:42:07.424Z,5.70
2019-04-05T23:44:37.775Z,4.00
2019-04-05T23:47:08.921Z,4.03
2019-04-05T23:49:42.607Z,4.87
2019-04-05T23:52:11.029Z,4.67
2019-04-05T23:54:40.641Z,4.40
2019-04-05T23:57:09.177Z,4.27
2019-04-05T23:59:40.867Z,3.80
